Time;durP1;ratioP1;P1;durP2;ratioP2;P2;SDS_P1;SDS_P2;PMS_P1;PMS_P2;Temp;Humidity;BMP_temperature;BMP_pressure;BME280_temperature;BME280_humidity;BME280_pressure;Samples;Min_cycle;Max_cycle;Signal;HPM_P1;HPM_P2
2023/09/14 00:00:49;;;;;;;452.00;204.07;;;16.20;99.90;;;;;;4995121;28;20212;-81
2023/09/14 00:03:15;;;;;;;504.67;229.00;;;;;;;;;;4997677;28;20250;-80
2023/09/14 00:05:47;;;;;;;491.73;228.33;;;16.00;99.90;;;;;;4977231;28;20303;-81
2023/09/14 00:08:13;;;;;;;460.17;207.57;;;;;;;;;;5001725;28;20225;-81
2023/09/14 00:10:39;;;;;;;508.20;233.13;;;16.10;99.90;;;;;;4992787;28;20795;-81
2023/09/14 00:13:05;;;;;;;488.17;221.40;;;;;;;;;;4996955;28;20222;-81
2023/09/14 00:15:32;;;;;;;471.37;211.63;;;16.10;99.90;;;;;;5000588;28;20216;-80
2023/09/14 00:17:58;;;;;;;450.50;199.40;;;;;;;;;;5000064;28;20220;-81
2023/09/14 00:20:26;;;;;;;454.27;202.20;;;16.00;99.90;;;;;;4978356;28;21340;-80
2023/09/14 00:22:53;;;;;;;469.67;210.57;;;16.00;99.90;;;;;;4996240;28;20323;-80
2023/09/14 00:25:22;;;;;;;441.20;195.77;;;16.00;99.90;;;;;;4998970;28;20303;-81
2023/09/14 00:27:48;;;;;;;489.37;227.43;;;;;;;;;;4995079;28;20185;-80
2023/09/14 00:30:14;;;;;;;479.03;217.00;;;15.90;99.90;;;;;;4979153;28;20199;-80
2023/09/14 00:32:40;;;;;;;469.00;210.70;;;;;;;;;;4981467;28;20224;-80
2023/09/14 00:35:13;;;;;;;484.97;222.03;;;15.90;99.90;;;;;;4975010;28;20221;-80
2023/09/14 00:37:39;;;;;;;449.47;199.83;;;;;;;;;;4972965;28;20226;-79
2023/09/14 00:40:10;;;;;;;450.23;200.37;;;15.80;99.90;;;;;;4979545;28;20248;-80
2023/09/14 00:42:42;;;;;;;444.43;197.67;;;15.90;99.90;;;;;;4976289;28;20215;-80
2023/09/14 00:45:13;;;;;;;479.77;217.13;;;15.70;99.90;;;;;;4976777;28;22206;-79
2023/09/14 00:47:42;;;;;;;487.80;221.33;;;15.70;99.90;;;;;;4998565;28;20208;-80
2023/09/14 00:50:07;;;;;;;500.57;222.80;;;15.70;99.90;;;;;;4973216;28;20225;-80
2023/09/14 00:52:35;;;;;;;470.23;208.30;;;15.80;99.90;;;;;;4997066;28;20948;-80
2023/09/14 00:55:01;;;;;;;473.23;211.67;;;;;;;;;;4977354;28;20189;-79
2023/09/14 00:57:27;;;;;;;431.37;188.73;;;;;;;;;;5002079;28;20189;-80
2023/09/14 00:59:53;;;;;;;458.37;203.90;;;15.60;99.90;;;;;;4996408;28;20221;-80
2023/09/14 01:02:19;;;;;;;459.87;203.93;;;15.60;99.90;;;;;;4993096;28;20243;-80
2023/09/14 01:04:44;;;;;;;489.87;218.30;;;15.60;99.90;;;;;;4992135;28;20220;-79
2023/09/14 01:07:10;;;;;;;488.50;217.27;;;;;;;;;;4974180;28;20256;-79
2023/09/14 01:09:36;;;;;;;469.97;208.37;;;;;;;;;;4979250;28;20189;-80
2023/09/14 01:12:03;;;;;;;474.50;207.13;;;;;;;;;;4995851;28;20331;-80
2023/09/14 01:14:37;;;;;;;447.47;196.73;;;15.40;99.90;;;;;;4997967;28;20239;-80
2023/09/14 01:17:11;;;;;;;454.13;196.13;;;15.50;99.90;;;;;;4997694;28;20262;-79
2023/09/14 01:19:42;;;;;;;496.87;224.03;;;15.30;99.90;;;;;;4993186;28;20228;-80
2023/09/14 01:22:30;;;;;;;504.53;224.27;;;15.40;99.90;;;;;;4992766;28;20236;-80
2023/09/14 01:24:56;;;;;;;472.93;208.17;;;;;;;;;;4977342;28;20189;-80
2023/09/14 01:27:22;;;;;;;484.00;214.05;;;;;;;;;;4976664;28;20655;-80
2023/09/14 01:29:48;;;;;;;480.07;219.17;;;;;;;;;;4997536;28;20200;-79
2023/09/14 01:32:15;;;;;;;477.33;208.87;;;;;;;;;;4971586;28;20233;-80
2023/09/14 01:34:41;;;;;;;484.90;218.50;;;;;;;;;;4977631;28;20213;-80
2023/09/14 01:37:07;;;;;;;488.70;216.43;;;;;;;;;;4989587;28;20684;-80
2023/09/14 01:39:34;;;;;;;452.77;195.43;;;15.20;99.90;;;;;;4994302;28;20191;-80
2023/09/14 01:42:01;;;;;;;452.07;196.63;;;14.90;99.90;;;;;;4992148;28;20227;-79
2023/09/14 01:44:27;;;;;;;466.10;202.33;;;15.20;99.90;;;;;;4979973;28;20212;-79
2023/09/14 01:46:56;;;;;;;496.23;221.13;;;15.20;99.90;;;;;;4977153;28;20247;-80
2023/09/14 01:49:22;;;;;;;474.27;204.03;;;;;;;;;;4993105;28;20208;-79
2023/09/14 01:51:48;;;;;;;474.93;206.67;;;;;;;;;;4995687;28;21085;-79
2023/09/14 01:54:14;;;;;;;473.03;208.47;;;;;;;;;;4978723;28;20185;-79
2023/09/14 01:56:41;;;;;;;460.70;202.33;;;15.00;99.90;;;;;;4994908;28;20220;-80
2023/09/14 01:59:07;;;;;;;455.93;194.80;;;;;;;;;;4997865;28;20307;-79
2023/09/14 02:01:33;;;;;;;513.60;232.50;;;;;;;;;;4972012;28;20296;-80
2023/09/14 02:03:59;;;;;;;444.23;192.17;;;;;;;;;;4983191;28;20200;-81
2023/09/14 02:06:25;;;;;;;454.93;195.60;;;;;;;;;;4982016;28;20185;-79
2023/09/14 02:08:51;;;;;;;444.90;193.20;;;;;;;;;;4995382;28;20743;-79
2023/09/14 02:11:16;;;;;;;464.90;209.13;;;;;;;;;;4973076;28;20845;-79
2023/09/14 02:13:42;;;;;;;445.97;193.73;;;15.20;99.90;;;;;;4985622;28;20212;-80
2023/09/14 02:16:09;;;;;;;437.50;191.17;;;;;;;;;;5001438;28;20220;-80
2023/09/14 02:18:35;;;;;;;466.30;204.33;;;;;;;;;;4999314;28;20193;-82
2023/09/14 02:21:01;;;;;;;475.53;207.83;;;;;;;;;;4986104;28;20224;-80
2023/09/14 02:23:27;;;;;;;474.47;210.33;;;;;;;;;;4985252;28;20219;-81
2023/09/14 02:25:53;;;;;;;458.50;201.60;;;;;;;;;;4979750;28;20648;-80
2023/09/14 02:28:20;;;;;;;448.17;192.00;;;;;;;;;;5002130;28;20224;-81
2023/09/14 02:30:46;;;;;;;488.63;217.10;;;;;;;;;;4996372;28;20300;-81
2023/09/14 02:33:12;;;;;;;439.57;187.13;;;;;;;;;;4986485;28;20201;-80
2023/09/14 02:35:41;;;;;;;473.43;215.17;;;15.00;99.90;;;;;;4974640;28;20349;-80
2023/09/14 02:38:07;;;;;;;454.93;196.73;;;;;;;;;;4982720;28;20220;-80
2023/09/14 02:40:33;;;;;;;494.50;219.90;;;;;;;;;;4980497;28;20367;-80
2023/09/14 02:43:00;;;;;;;436.17;192.47;;;;;;;;;;5024699;23;20224;-52
2023/09/14 02:45:26;;;;;;;417.23;178.93;;;;;;;;;;5030254;28;20168;-51
2023/09/14 02:47:52;;;;;;;404.17;173.83;;;;;;;;;;5029528;28;20231;-52
2023/09/14 02:50:17;;;;;;;400.37;171.37;;;15.10;99.90;;;;;;5029927;28;20313;-52
2023/09/14 02:52:43;;;;;;;408.17;176.17;;;;;;;;;;5029156;28;20595;-51
2023/09/14 02:55:09;;;;;;;418.00;179.20;;;;;;;;;;5029740;28;20216;-52
2023/09/14 02:57:35;;;;;;;460.80;205.77;;;;;;;;;;5029714;22;20311;-69
2023/09/14 03:00:01;;;;;;;486.90;216.33;;;;;;;;;;5006191;28;20262;-68
2023/09/14 03:02:27;;;;;;;508.93;230.53;;;15.00;99.90;;;;;;4990894;28;22068;-68
2023/09/14 03:04:53;;;;;;;478.03;218.27;;;;;;;;;;4998505;28;20610;-68
2023/09/14 03:07:19;;;;;;;479.43;214.23;;;;;;;;;;4984273;28;20340;-68
2023/09/14 03:09:45;;;;;;;520.90;239.97;;;;;;;;;;4998760;28;20230;-68
2023/09/14 03:12:10;;;;;;;442.43;195.33;;;;;;;;;;5009859;28;21333;-68
2023/09/14 03:14:36;;;;;;;502.17;225.00;;;;;;;;;;5001666;28;20219;-69
2023/09/14 03:17:02;;;;;;;485.87;214.53;;;;;;;;;;4997007;28;20208;-69
2023/09/14 03:19:28;;;;;;;498.13;216.83;;;14.90;99.90;;;;;;4996124;28;20220;-69
2023/09/14 03:21:54;;;;;;;514.53;231.50;;;;;;;;;;5000808;28;20216;-69
2023/09/14 03:24:20;;;;;;;482.87;211.03;;;;;;;;;;4980349;28;20634;-68
2023/09/14 03:26:46;;;;;;;471.13;206.00;;;;;;;;;;4981266;28;20209;-68
2023/09/14 03:29:12;;;;;;;465.13;203.47;;;;;;;;;;4996836;28;20271;-69
2023/09/14 03:31:38;;;;;;;465.60;205.03;;;;;;;;;;4978937;28;20594;-69
2023/09/14 03:34:05;;;;;;;488.57;210.07;;;14.70;99.90;;;;;;4996754;28;20247;-69
2023/09/14 03:36:32;;;;;;;485.63;211.80;;;;;;;;;;4981357;28;20788;-68
2023/09/14 03:38:58;;;;;;;498.47;220.93;;;;;;;;;;4976325;28;20224;-68
2023/09/14 03:41:24;;;;;;;496.30;224.90;;;;;;;;;;4996812;28;20308;-68
2023/09/14 03:43:50;;;;;;;502.33;225.40;;;;;;;;;;4998439;28;20209;-68
2023/09/14 03:46:16;;;;;;;440.50;188.97;;;;;;;;;;4980411;28;21035;-68
2023/09/14 03:48:42;;;;;;;494.27;226.27;;;;;;;;;;4993326;28;20185;-69
2023/09/14 03:51:08;;;;;;;494.00;218.13;;;;;;;;;;4996490;28;20212;-68
2023/09/14 03:53:34;;;;;;;464.23;201.20;;;;;;;;;;4995265;28;20224;-68
2023/09/14 03:55:59;;;;;;;494.73;216.33;;;14.40;99.90;;;;;;4993747;28;20238;-68
2023/09/14 03:58:25;;;;;;;479.73;208.30;;;;;;;;;;4996451;28;20975;-68
2023/09/14 04:00:51;;;;;;;512.63;230.40;;;;;;;;;;4981960;28;20767;-68
2023/09/14 04:03:17;;;;;;;484.17;212.53;;;;;;;;;;5003841;28;20315;-68
2023/09/14 04:05:44;;;;;;;504.33;225.40;;;14.40;99.90;;;;;;4999830;28;20223;-69
2023/09/14 04:08:10;;;;;;;486.03;214.13;;;;;;;;;;4982738;28;20318;-68
2023/09/14 04:10:39;;;;;;;509.43;225.13;;;14.30;99.90;;;;;;4979372;28;20307;-69
2023/09/14 04:13:26;;;;;;;522.33;230.00;;;14.30;99.90;;;;;;4981984;28;20279;-69
2023/09/14 04:15:52;;;;;;;528.47;239.80;;;;;;;;;;4979573;28;21006;-68
2023/09/14 04:18:18;;;;;;;494.37;216.23;;;;;;;;;;4977362;28;20176;-69
2023/09/14 04:20:44;;;;;;;510.10;231.37;;;;;;;;;;4991175;28;20225;-69
2023/09/14 04:23:10;;;;;;;458.47;196.20;;;;;;;;;;4982384;28;20217;-70
2023/09/14 04:25:36;;;;;;;486.13;218.50;;;;;;;;;;4994354;28;21330;-70
2023/09/14 04:28:02;;;;;;;491.37;209.27;;;;;;;;;;4994810;28;20284;-67
2023/09/14 04:30:28;;;;;;;506.37;225.33;;;;;;;;;;4995031;28;20259;-68
2023/09/14 04:32:54;;;;;;;492.00;211.17;;;;;;;;;;4993793;28;20219;-68
2023/09/14 04:35:20;;;;;;;531.93;233.23;;;;;;;;;;4970909;28;20763;-68
2023/09/14 04:37:46;;;;;;;481.77;213.57;;;;;;;;;;4990627;28;20311;-68
2023/09/14 04:40:12;;;;;;;446.60;193.80;;;;;;;;;;4996257;28;20225;-69
2023/09/14 04:42:38;;;;;;;493.90;206.87;;;;;;;;;;4993196;28;20205;-68
2023/09/14 04:45:04;;;;;;;450.27;190.97;;;;;;;;;;5000277;28;20213;-68
2023/09/14 04:47:30;;;;;;;493.70;210.07;;;;;;;;;;4994044;28;20209;-68
2023/09/14 04:49:56;;;;;;;495.57;214.87;;;;;;;;;;4993918;28;20972;-68
2023/09/14 04:52:22;;;;;;;483.03;213.30;;;;;;;;;;4995577;28;20299;-68
2023/09/14 04:54:48;;;;;;;473.17;212.47;;;13.60;99.90;;;;;;4992355;28;20185;-68
2023/09/14 04:57:13;;;;;;;474.43;204.07;;;;;;;;;;4995370;28;20647;-68
2023/09/14 04:59:39;;;;;;;438.90;184.83;;;;;;;;;;4997520;28;20229;-68
2023/09/14 05:02:05;;;;;;;475.27;203.83;;;;;;;;;;4992120;28;20250;-68
2023/09/14 05:04:31;;;;;;;489.37;212.10;;;;;;;;;;4993994;28;20220;-68
2023/09/14 05:06:57;;;;;;;505.60;218.63;;;;;;;;;;4992137;28;20220;-68
2023/09/14 05:09:23;;;;;;;544.90;246.77;;;;;;;;;;4991133;28;20208;-66
2023/09/14 05:11:49;;;;;;;482.03;205.77;;;;;;;;;;4976067;28;20235;-66
2023/09/14 05:14:15;;;;;;;542.20;240.93;;;;;;;;;;4996454;28;20292;-67
2023/09/14 05:16:41;;;;;;;508.63;223.80;;;;;;;;;;4987134;28;20220;-66
2023/09/14 05:19:07;;;;;;;541.37;250.70;;;;;;;;;;4971338;28;21525;-66
2023/09/14 05:21:33;;;;;;;481.47;208.17;;;;;;;;;;4988650;28;20205;-66
2023/09/14 05:23:59;;;;;;;530.77;241.37;;;;;;;;;;4986831;28;20730;-67
2023/09/14 05:26:25;;;;;;;582.90;269.97;;;;;;;;;;4984095;28;20246;-66
2023/09/14 05:28:51;;;;;;;522.60;227.47;;;;;;;;;;4993099;28;20288;-66
2023/09/14 05:31:17;;;;;;;486.70;208.97;;;;;;;;;;4973425;28;20237;-66
2023/09/14 05:33:43;;;;;;;522.37;232.77;;;;;;;;;;4989223;28;20283;-65
2023/09/14 05:36:08;;;;;;;482.70;204.47;;;;;;;;;;4984657;28;20213;-65
2023/09/14 05:38:34;;;;;;;574.27;262.00;;;;;;;;;;4963996;28;20217;-65
2023/09/14 05:41:00;;;;;;;461.23;197.97;;;;;;;;;;4983400;28;20231;-65
2023/09/14 05:43:26;;;;;;;501.87;226.50;;;;;;;;;;4992140;28;20220;-69
2023/09/14 05:45:52;;;;;;;539.47;246.80;;;;;;;;;;4986461;28;20851;-66
2023/09/14 05:48:18;;;;;;;506.43;225.00;;;;;;;;;;4975565;28;20173;-66
2023/09/14 05:50:44;;;;;;;515.80;234.83;;;;;;;;;;4982006;28;20277;-64
2023/09/14 05:53:10;;;;;;;506.07;230.83;;;;;;;;;;4987792;28;21230;-64
2023/09/14 05:55:36;;;;;;;521.70;234.90;;;;;;;;;;4983201;28;20220;-64
2023/09/14 05:58:02;;;;;;;500.33;218.73;;;;;;;;;;4975187;28;20201;-64
2023/09/14 06:00:28;;;;;;;506.57;227.03;;;;;;;;;;4972815;28;20674;-64
2023/09/14 06:02:54;;;;;;;483.33;203.23;;;;;;;;;;4972371;28;20247;-64
2023/09/14 06:05:20;;;;;;;502.07;215.63;;;;;;;;;;4995817;28;20240;-64
2023/09/14 06:07:46;;;;;;;512.13;226.40;;;;;;;;;;4984936;28;20228;-66
2023/09/14 06:10:12;;;;;;;485.03;209.13;;;;;;;;;;4982078;28;20215;-69
2023/09/14 06:12:38;;;;;;;512.57;215.47;;;;;;;;;;4989475;28;20716;-65
2023/09/14 06:15:05;;;;;;;513.33;222.03;;;;;;;;;;4983657;28;20220;-60
2023/09/14 06:17:30;;;;;;;543.67;236.43;;;;;;;;;;4972293;28;20477;-59
2023/09/14 06:19:56;;;;;;;531.03;232.20;;;;;;;;;;4987610;28;20240;-60
2023/09/14 06:22:22;;;;;;;499.97;211.57;;;;;;;;;;4988084;28;20231;-61
2023/09/14 06:24:48;;;;;;;509.30;218.07;;;;;;;;;;4985577;28;20181;-60
2023/09/14 06:27:14;;;;;;;487.53;205.63;;;14.00;99.90;;;;;;4992149;28;20212;-60
2023/09/14 06:29:40;;;;;;;488.57;204.10;;;;;;;;;;4989462;28;20527;-59
2023/09/14 06:32:06;;;;;;;524.97;231.43;;;;;;;;;;4992361;28;22261;-60
2023/09/14 06:34:32;;;;;;;637.57;310.83;;;;;;;;;;4984985;28;20661;-59
2023/09/14 06:36:58;;;;;;;489.40;216.40;;;;;;;;;;4979750;28;20220;-59
2023/09/14 06:39:23;;;;;;;531.20;239.73;;;;;;;;;;4986727;28;20260;-59
2023/09/14 06:41:49;;;;;;;533.17;240.37;;;;;;;;;;4984360;28;20227;-59
2023/09/14 06:44:18;;;;;;;502.07;212.50;;;;;;;;;;4988231;28;20216;-59
2023/09/14 06:46:45;;;;;;;479.40;208.50;;;;;;;;;;4992681;28;20216;-59
2023/09/14 06:49:11;;;;;;;501.57;226.00;;;;;;;;;;4973259;28;20998;-59
2023/09/14 06:51:37;;;;;;;465.00;200.57;;;;;;;;;;4994035;28;20207;-59
2023/09/14 06:54:04;;;;;;;499.60;225.87;;;;;;;;;;4988489;28;20285;-58
2023/09/14 06:56:30;;;;;;;503.53;223.90;;;;;;;;;;4989940;28;20221;-59
2023/09/14 06:58:56;;;;;;;488.27;215.60;;;;;;;;;;4983584;28;20231;-59
2023/09/14 07:01:22;;;;;;;474.23;209.00;;;;;;;;;;5004982;28;20232;-59
2023/09/14 07:03:50;;;;;;;497.43;227.67;;;14.80;99.90;;;;;;5002534;28;20303;-59
2023/09/14 07:06:16;;;;;;;473.83;205.93;;;;;;;;;;5002460;28;20564;-59
2023/09/14 07:08:42;;;;;;;508.83;229.87;;;;;;;;;;4999672;28;20209;-58
2023/09/14 07:11:08;;;;;;;500.90;224.07;;;;;;;;;;4994474;28;20255;-59
2023/09/14 07:13:34;;;;;;;510.20;228.97;;;;;;;;;;4979798;28;20208;-59
2023/09/14 07:16:00;;;;;;;490.27;212.83;;;;;;;;;;5001549;28;20188;-60
2023/09/14 07:18:30;;;;;;;529.13;234.30;;;15.10;99.90;;;;;;4994758;28;20184;-59
2023/09/14 07:20:58;;;;;;;504.50;218.53;;;15.20;99.90;;;;;;4990106;28;20224;-59
2023/09/14 07:23:26;;;;;;;528.63;236.73;;;15.10;99.90;;;;;;4989301;28;20213;-59
2023/09/14 07:25:52;;;;;;;458.03;201.03;;;;;;;;;;4993402;28;20633;-61
2023/09/14 07:28:19;;;;;;;463.03;202.80;;;14.70;99.90;;;;;;4994608;28;20223;-62
2023/09/14 07:30:47;;;;;;;455.43;195.27;;;15.30;99.90;;;;;;5000483;28;20924;-61
2023/09/14 07:33:13;;;;;;;458.67;201.07;;;;;;;;;;4997441;28;20219;-61
2023/09/14 07:35:42;;;;;;;456.73;199.03;;;15.50;99.90;;;;;;4998503;28;20300;-61
2023/09/14 07:38:09;;;;;;;506.43;232.67;;;15.60;99.90;;;;;;4979452;28;20262;-61
2023/09/14 07:40:35;;;;;;;518.03;232.57;;;;;;;;;;4990859;28;20248;-61
2023/09/14 07:43:01;;;;;;;489.97;217.67;;;;;;;;;;4990529;28;20258;-61
2023/09/14 07:45:29;;;;;;;499.67;226.33;;;15.50;99.90;;;;;;4980165;28;20185;-61
2023/09/14 07:47:56;;;;;;;515.87;232.33;;;;;;;;;;4995252;28;20224;-62
2023/09/14 07:50:21;;;;;;;508.50;230.60;;;;;;;;;;4988115;28;20574;-61
2023/09/14 07:52:48;;;;;;;492.87;221.03;;;;;;;;;;4987549;28;20240;-61
2023/09/14 07:55:14;;;;;;;490.70;219.47;;;;;;;;;;4975473;28;20279;-62
2023/09/14 07:57:40;;;;;;;492.77;219.83;;;;;;;;;;4993661;28;20287;-61
2023/09/14 08:00:06;;;;;;;528.40;242.33;;;;;;;;;;4997118;28;20220;-63
2023/09/14 08:02:32;;;;;;;497.77;217.17;;;15.90;46.00;;;;;;5000238;28;20221;-63
2023/09/14 08:04:58;;;;;;;520.33;232.47;;;;;;;;;;4994284;28;20212;-63
2023/09/14 08:07:24;;;;;;;506.87;225.50;;;;;;;;;;4991506;28;20259;-63
2023/09/14 08:09:50;;;;;;;513.53;236.00;;;;;;;;;;4989096;28;20207;-64
2023/09/14 08:12:16;;;;;;;482.07;216.80;;;16.00;49.40;;;;;;4970885;28;20570;-64
2023/09/14 08:14:42;;;;;;;513.80;234.33;;;;;;;;;;4994696;28;20208;-63
2023/09/14 08:17:08;;;;;;;519.73;229.77;;;;;;;;;;4995084;28;20216;-63
2023/09/14 08:19:33;;;;;;;516.27;232.10;;;;;;;;;;4995095;28;20402;-62
2023/09/14 08:21:59;;;;;;;532.63;241.90;;;;;;;;;;4992181;28;21906;-62
2023/09/14 08:24:25;;;;;;;510.40;228.37;;;;;;;;;;4978212;28;20185;-63
2023/09/14 08:26:51;;;;;;;514.30;236.03;;;;;;;;;;4994548;28;20201;-63
2023/09/14 08:29:17;;;;;;;548.40;256.07;;;;;;;;;;4992338;28;20459;-63
2023/09/14 08:31:44;;;;;;;500.33;228.20;;;;;;;;;;4999673;28;20583;-64
2023/09/14 08:34:11;;;;;;;517.43;240.23;;;16.40;1.00;;;;;;4979438;28;20366;-64
2023/09/14 08:36:38;;;;;;;530.77;252.30;;;16.50;1.00;;;;;;4995766;28;20188;-62
2023/09/14 08:39:04;;;;;;;496.70;230.03;;;;;;;;;;4992752;28;20290;-63
2023/09/14 08:41:36;;;;;;;544.57;255.27;;;16.60;1.00;;;;;;4993971;28;20741;-63
2023/09/14 08:46:32;;;;;;;472.87;211.50;;;16.60;1.00;;;;;;5005138;28;20282;-52
2023/09/14 08:48:59;;;;;;;498.77;233.07;;;16.60;99.90;;;;;;4981004;28;20270;-53
2023/09/14 08:51:28;;;;;;;461.07;204.90;;;16.70;1.00;;;;;;4980484;28;20285;-53
2023/09/14 08:53:55;;;;;;;492.63;227.30;;;16.70;1.00;;;;;;4976670;28;20250;-52
2023/09/14 08:56:22;;;;;;;495.73;231.83;;;16.60;1.00;;;;;;4979183;28;20311;-52
2023/09/14 08:58:48;;;;;;;544.63;255.37;;;16.80;99.90;;;;;;4973845;28;20904;-53
2023/09/14 09:01:16;;;;;;;517.80;242.03;;;;;;;;;;4957229;28;21193;-53
2023/09/14 09:03:42;;;;;;;550.70;262.70;;;;;;;;;;4958801;28;20185;-53
2023/09/14 09:06:08;;;;;;;511.60;239.07;;;;;;;;;;4973716;28;20669;-53
2023/09/14 09:08:34;;;;;;;494.40;223.33;;;;;;;;;;4967665;28;20723;-53
2023/09/14 09:11:01;;;;;;;496.40;230.77;;;;;;;;;;4963141;28;20310;-52
2023/09/14 09:13:40;;;;;;;530.70;246.50;;;16.80;99.90;;;;;;4971852;28;20760;-53
2023/09/14 09:16:06;;;;;;;488.20;224.47;;;;;;;;;;4979461;28;20327;-53
2023/09/14 09:18:35;;;;;;;490.77;229.33;;;;;;;;;;4975712;28;20259;-52
2023/09/14 09:21:05;;;;;;;553.47;274.63;;;;;;;;;;4971151;28;20838;-53
2023/09/14 09:23:32;;;;;;;586.57;282.23;;;17.20;1.00;;;;;;4954040;28;20235;-53
2023/09/14 09:26:00;;;;;;;519.47;247.47;;;;;;;;;;4961313;28;20222;-53
2023/09/14 09:28:31;;;;;;;503.20;241.03;;;17.30;99.90;;;;;;4962986;28;20691;-53
2023/09/14 09:30:57;;;;;;;452.67;208.67;;;;;;;;;;4976982;28;20204;-53
2023/09/14 09:33:36;;;;;;;472.40;215.27;;;17.50;1.00;;;;;;4980414;28;20185;-53
2023/09/14 09:36:17;;;;;;;625.27;318.37;;;17.60;99.90;;;;;;4970447;28;20446;-54
2023/09/14 09:38:45;;;;;;;555.63;274.97;;;;;;;;;;4961706;28;20228;-53
2023/09/14 09:41:11;;;;;;;516.20;242.60;;;;;;;;;;4968110;28;20935;-54
2023/09/14 09:43:39;;;;;;;458.53;215.13;;;17.70;99.90;;;;;;4975697;28;20227;-54
2023/09/14 09:46:16;;;;;;;548.00;270.93;;;17.70;1.00;;;;;;4977910;28;20647;-54
2023/09/14 09:48:42;;;;;;;564.43;283.27;;;17.80;1.00;;;;;;4959157;28;20267;-53
2023/09/14 09:51:09;;;;;;;604.80;300.00;;;;;;;;;;4960627;28;20316;-53
2023/09/14 09:53:35;;;;;;;540.53;266.57;;;;;;;;;;4953773;28;20696;-54
2023/09/14 09:56:02;;;;;;;496.73;237.53;;;;;;;;;;4959067;28;20594;-53
2023/09/14 09:58:35;;;;;;;549.53;271.20;;;18.00;1.00;;;;;;4969162;28;20294;-53
2023/09/14 10:01:01;;;;;;;567.43;285.70;;;;;;;;;;4962729;28;20216;-53
2023/09/14 10:03:27;;;;;;;534.43;265.27;;;;;;;;;;4974414;28;20241;-54
2023/09/14 10:05:53;;;;;;;551.87;274.50;;;;;;;;;;4970017;28;21595;-53
2023/09/14 10:08:20;;;;;;;545.17;268.20;;;18.50;1.00;;;;;;4957062;28;21013;-54
2023/09/14 10:10:52;;;;;;;717.33;374.43;;;18.70;1.00;;;;;;4962231;28;20229;-53
2023/09/14 10:13:23;;;;;;;567.60;286.67;;;18.80;1.00;;;;;;4946007;28;20676;-54
2023/09/14 10:15:53;;;;;;;527.53;263.43;;;18.80;1.00;;;;;;4967725;28;20197;-53
2023/09/14 10:18:24;;;;;;;508.23;256.07;;;18.80;99.90;;;;;;4973616;28;20654;-53
2023/09/14 10:20:51;;;;;;;505.83;250.73;;;19.00;1.00;;;;;;4976979;28;20532;-53
2023/09/14 10:23:17;;;;;;;521.53;259.87;;;;;;;;;;4979987;28;20212;-54
2023/09/14 10:25:46;;;;;;;517.33;258.43;;;19.20;1.00;;;;;;4978547;28;20651;-53
2023/09/14 10:28:13;;;;;;;534.77;270.87;;;;;;;;;;4990304;28;20260;-53
2023/09/14 10:30:39;;;;;;;484.47;235.83;;;19.50;1.00;;;;;;4990338;28;20186;-53
2023/09/14 10:33:07;;;;;;;502.00;252.00;;;19.40;1.00;;;;;;4985388;28;20221;-53
2023/09/14 10:35:33;;;;;;;501.47;247.03;;;;;;;;;;4988299;28;20367;-54
2023/09/14 10:38:00;;;;;;;483.37;243.63;;;;;;;;;;4986349;28;20223;-53
2023/09/14 10:40:28;;;;;;;488.73;244.37;;;19.50;99.90;;;;;;4991818;28;20659;-54
2023/09/14 10:42:54;;;;;;;493.67;248.40;;;;;;;;;;4987387;28;21647;-53
2023/09/14 10:45:20;;;;;;;511.23;257.90;;;20.30;99.90;;;;;;4985229;28;20681;-54
2023/09/14 10:47:49;;;;;;;495.37;252.50;;;19.50;1.00;;;;;;4981202;28;20476;-55
2023/09/14 10:50:18;;;;;;;544.67;275.93;;;19.80;99.90;;;;;;4991699;28;20829;-53
2023/09/14 10:52:45;;;;;;;526.23;266.00;;;20.00;99.90;;;;;;4982670;28;20861;-53
2023/09/14 10:55:11;;;;;;;520.37;265.03;;;19.90;99.90;;;;;;4988971;28;20271;-53
2023/09/14 10:57:40;;;;;;;559.73;293.53;;;20.00;99.90;;;;;;4975824;28;20188;-55
2023/09/14 11:00:08;;;;;;;534.70;278.43;;;20.00;99.90;;;;;;4979331;28;20223;-53
2023/09/14 11:02:37;;;;;;;510.27;264.90;;;20.20;99.90;;;;;;4956497;28;20248;-55
2023/09/14 11:05:16;;;;;;;754.77;425.43;;;20.40;99.90;;;;;;4933662;28;20355;-55
2023/09/14 11:07:44;;;;;;;536.63;279.87;;;20.20;99.90;;;;;;4938964;28;20212;-53
2023/09/14 11:10:14;;;;;;;555.70;291.53;;;20.30;99.90;;;;;;4973991;28;20540;-54
2023/09/14 11:12:40;;;;;;;540.07;287.57;;;;;;;;;;4974094;28;20195;-53
2023/09/14 11:15:16;;;;;;;577.63;310.50;;;20.10;99.90;;;;;;4967642;28;20231;-54
2023/09/14 11:17:43;;;;;;;514.07;264.87;;;20.10;99.90;;;;;;4976165;28;20208;-54
2023/09/14 11:20:24;;;;;;;575.50;300.03;;;20.10;99.90;;;;;;4965103;28;20225;-54
2023/09/14 11:22:51;;;;;;;514.27;268.10;;;20.00;99.90;;;;;;4979199;28;20221;-53
2023/09/14 11:25:33;;;;;;;514.57;267.87;;;20.00;99.90;;;;;;4973304;28;20212;-53
2023/09/14 11:27:59;;;;;;;510.20;266.70;;;;;;;;;;4986939;28;20255;-53
2023/09/14 11:30:26;;;;;;;486.67;240.67;;;;;;;;;;4969287;28;20192;-52
2023/09/14 11:32:53;;;;;;;471.53;240.17;;;20.20;99.90;;;;;;4986711;28;20686;-53
2023/09/14 11:35:20;;;;;;;526.53;281.17;;;;;;;;;;4978870;28;20227;-53
2023/09/14 11:37:46;;;;;;;520.27;266.13;;;20.80;99.90;;;;;;4966558;28;20217;-55
2023/09/14 11:40:15;;;;;;;446.60;226.70;;;20.60;99.90;;;;;;5013454;22;1051038;-52
2023/09/14 11:43:28;;;;;;;435.37;228.47;;;20.80;99.90;;;;;;5049752;28;20230;-52
2023/09/14 11:45:58;;;;;;;441.37;232.47;;;21.00;1.00;;;;;;4948587;29;20248;-52
2023/09/14 11:48:28;;;;;;;440.33;231.07;;;21.20;99.90;;;;;;5040673;28;20294;-52
2023/09/14 11:50:55;;;;;;;437.17;230.00;;;;;;;;;;5049738;28;20215;-53
2023/09/14 11:53:22;;;;;;;452.43;236.30;;;21.40;88.20;;;;;;5049408;28;20243;-52
2023/09/14 11:55:49;;;;;;;449.77;243.53;;;21.40;1.00;;;;;;5049352;28;20215;-53
2023/09/14 11:58:15;;;;;;;441.13;237.50;;;;;;;;;;5049300;28;20234;-53
2023/09/14 12:00:44;;;;;;;434.07;233.53;;;21.80;55.20;;;;;;5036488;28;20270;-53
2023/09/14 12:03:10;;;;;;;449.30;240.87;;;;;;;;;;5029731;28;20204;-52
2023/09/14 12:05:36;;;;;;;439.87;239.90;;;;;;;;;;5029445;28;20235;-52
2023/09/14 12:08:13;;;;;;;429.67;236.83;;;21.90;66.20;;;;;;5029055;28;20228;-52
2023/09/14 12:10:39;;;;;;;449.07;243.27;;;;;;;;;;5029587;28;20219;-53
2023/09/14 12:13:11;;;;;;;446.23;248.20;;;21.80;1.00;;;;;;5029141;28;20219;-52
2023/09/14 12:15:37;;;;;;;450.20;249.17;;;;;;;;;;5029866;28;20681;-53
2023/09/14 12:18:06;;;;;;;446.53;245.63;;;;;;;;;;5027706;28;20243;-52
2023/09/14 12:20:34;;;;;;;440.40;245.63;;;22.20;45.00;;;;;;5029172;28;20286;-52
2023/09/14 12:23:01;;;;;;;447.53;244.73;;;22.30;32.50;;;;;;5028899;28;20222;-53
2023/09/14 12:25:27;;;;;;;452.40;250.53;;;;;;;;;;5029091;28;20244;-52
2023/09/14 12:27:53;;;;;;;452.43;258.17;;;22.70;1.00;;;;;;5028847;28;20290;-53
2023/09/14 12:30:19;;;;;;;445.80;249.00;;;;;;;;;;5029573;28;20563;-52
2023/09/14 12:32:45;;;;;;;451.83;259.30;;;22.80;99.90;;;;;;5028691;28;20304;-53
2023/09/14 12:35:11;;;;;;;456.27;260.80;;;;;;;;;;5037970;28;20314;-52
2023/09/14 12:37:38;;;;;;;452.77;257.40;;;;;;;;;;5048258;28;20649;-52
2023/09/14 12:40:08;;;;;;;459.47;263.10;;;22.50;1.00;;;;;;5048517;28;20222;-53
2023/09/14 12:42:34;;;;;;;447.73;259.27;;;22.60;1.00;;;;;;5046767;28;20199;-52
2023/09/14 12:45:00;;;;;;;447.00;257.43;;;;;;;;;;5028704;28;20226;-53
2023/09/14 12:47:26;;;;;;;451.87;260.40;;;;;;;;;;5029065;28;20298;-52
2023/09/14 12:49:59;;;;;;;456.50;264.80;;;23.00;12.70;;;;;;5031712;28;20219;-53
2023/09/14 12:52:28;;;;;;;450.00;262.07;;;22.60;1.00;;;;;;5048570;28;20235;-53
2023/09/14 12:54:54;;;;;;;445.10;260.43;;;;;;;;;;5046192;28;20225;-53
2023/09/14 12:57:19;;;;;;;456.77;267.60;;;23.10;99.90;;;;;;5048607;28;20560;-53
2023/09/14 13:00:20;;;;;;;460.03;266.80;;;23.40;1.00;;;;;;5048346;28;20265;-53
2023/09/14 13:02:47;;;;;;;452.40;266.10;;;24.20;1.00;;;;;;5048292;28;20580;-53
2023/09/14 13:05:14;;;;;;;444.07;263.20;;;23.70;99.90;;;;;;5047845;28;20223;-53
2023/09/14 13:07:47;;;;;;;463.23;272.87;;;24.20;32.70;;;;;;5047733;28;20225;-52
2023/09/14 13:10:18;;;;;;;451.53;266.37;;;24.10;1.00;;;;;;5048381;28;20242;-53
2023/09/14 13:13:11;;;;;;;449.60;268.93;;;24.10;99.90;;;;;;5048430;28;20172;-53
2023/09/14 13:15:46;;;;;;;441.07;275.60;;;24.20;1.00;;;;;;5048393;28;20160;-53